sensor_id;sensor_type;location;lat;lon;timestamp;temperature;humidity
28552;DHT22;15752;49.560;8.708;2023-02-11T00:01:26;4.30;96.80
28552;DHT22;15752;49.560;8.708;2023-02-11T00:03:56;4.40;96.50
28552;DHT22;15752;49.560;8.708;2023-02-11T00:06:26;4.30;96.50
28552;DHT22;15752;49.560;8.708;2023-02-11T00:08:56;4.30;96.50
28552;DHT22;15752;49.560;8.708;2023-02-11T00:11:27;4.30;96.50
28552;DHT22;15752;49.560;8.708;2023-02-11T00:13:57;4.30;97.00
28552;DHT22;15752;49.560;8.708;2023-02-11T00:16:27;4.30;96.60
28552;DHT22;15752;49.560;8.708;2023-02-11T00:18:58;4.20;96.60
28552;DHT22;15752;49.560;8.708;2023-02-11T00:21:27;4.20;96.60
28552;DHT22;15752;49.560;8.708;2023-02-11T00:23:56;4.20;96.60
28552;DHT22;15752;49.560;8.708;2023-02-11T00:26:29;4.30;96.70
28552;DHT22;15752;49.560;8.708;2023-02-11T00:28:58;4.20;96.70
28552;DHT22;15752;49.560;8.708;2023-02-11T00:31:30;4.20;96.60
28552;DHT22;15752;49.560;8.708;2023-02-11T00:33:59;4.20;96.70
28552;DHT22;15752;49.560;8.708;2023-02-11T00:36:28;4.20;96.60
28552;DHT22;15752;49.560;8.708;2023-02-11T00:38:58;4.20;96.70
28552;DHT22;15752;49.560;8.708;2023-02-11T00:41:28;4.20;96.70
28552;DHT22;15752;49.560;8.708;2023-02-11T00:43:58;4.20;96.80
28552;DHT22;15752;49.560;8.708;2023-02-11T00:46:27;4.30;96.60
28552;DHT22;15752;49.560;8.708;2023-02-11T00:48:55;4.30;96.70
28552;DHT22;15752;49.560;8.708;2023-02-11T00:51:24;4.20;96.60
28552;DHT22;15752;49.560;8.708;2023-02-11T00:53:52;4.30;96.70
28552;DHT22;15752;49.560;8.708;2023-02-11T00:56:22;4.20;96.70
28552;DHT22;15752;49.560;8.708;2023-02-11T00:58:51;4.20;96.70
28552;DHT22;15752;49.560;8.708;2023-02-11T01:01:20;4.30;96.80
28552;DHT22;15752;49.560;8.708;2023-02-11T01:03:49;4.20;96.70
28552;DHT22;15752;49.560;8.708;2023-02-11T01:06:18;4.20;96.80
28552;DHT22;15752;49.560;8.708;2023-02-11T01:08:46;4.20;96.70
28552;DHT22;15752;49.560;8.708;2023-02-11T01:11:17;4.10;96.80
28552;DHT22;15752;49.560;8.708;2023-02-11T01:13:47;4.10;96.80
28552;DHT22;15752;49.560;8.708;2023-02-11T01:16:18;4.10;96.80
28552;DHT22;15752;49.560;8.708;2023-02-11T01:18:47;4.10;96.80
28552;DHT22;15752;49.560;8.708;2023-02-11T01:21:16;4.10;96.70
28552;DHT22;15752;49.560;8.708;2023-02-11T01:23:45;4.10;96.80
28552;DHT22;15752;49.560;8.708;2023-02-11T01:26:13;4.10;96.80
28552;DHT22;15752;49.560;8.708;2023-02-11T01:28:42;4.30;96.80
28552;DHT22;15752;49.560;8.708;2023-02-11T01:31:10;4.10;96.90
28552;DHT22;15752;49.560;8.708;2023-02-11T01:33:40;4.10;96.80
28552;DHT22;15752;49.560;8.708;2023-02-11T01:36:10;4.10;96.90
28552;DHT22;15752;49.560;8.708;2023-02-11T01:38:39;4.10;96.90
28552;DHT22;15752;49.560;8.708;2023-02-11T01:41:10;4.30;96.90
28552;DHT22;15752;49.560;8.708;2023-02-11T01:43:42;4.10;96.90
28552;DHT22;15752;49.560;8.708;2023-02-11T01:46:29;4.20;96.90
28552;DHT22;15752;49.560;8.708;2023-02-11T01:49:04;4.20;97.10
28552;DHT22;15752;49.560;8.708;2023-02-11T01:51:37;4.20;97.10
28552;DHT22;15752;49.560;8.708;2023-02-11T01:54:11;4.20;97.10
28552;DHT22;15752;49.560;8.708;2023-02-11T01:56:59;4.20;97.10
28552;DHT22;15752;49.560;8.708;2023-02-11T01:59:54;4.20;97.00
28552;DHT22;15752;49.560;8.708;2023-02-11T02:02:43;4.20;97.20
28552;DHT22;15752;49.560;8.708;2023-02-11T02:05:23;4.20;97.10
28552;DHT22;15752;49.560;8.708;2023-02-11T02:08:02;4.20;97.10
28552;DHT22;15752;49.560;8.708;2023-02-11T02:10:34;4.20;97.10
28552;DHT22;15752;49.560;8.708;2023-02-11T02:13:05;4.20;97.00
28552;DHT22;15752;49.560;8.708;2023-02-11T02:15:34;4.20;97.00
28552;DHT22;15752;49.560;8.708;2023-02-11T02:18:13;4.20;97.10
28552;DHT22;15752;49.560;8.708;2023-02-11T02:24:57;4.20;97.30
28552;DHT22;15752;49.560;8.708;2023-02-11T02:27:36;4.20;97.20
28552;DHT22;15752;49.560;8.708;2023-02-11T02:33:32;4.20;97.20
28552;DHT22;15752;49.560;8.708;2023-02-11T02:36:11;4.20;97.20
28552;DHT22;15752;49.560;8.708;2023-02-11T02:38:47;4.20;97.20
28552;DHT22;15752;49.560;8.708;2023-02-11T02:41:22;4.30;97.30
28552;DHT22;15752;49.560;8.708;2023-02-11T02:43:52;4.20;97.20
28552;DHT22;15752;49.560;8.708;2023-02-11T02:46:23;4.30;97.20
28552;DHT22;15752;49.560;8.708;2023-02-11T02:48:55;4.20;97.20
28552;DHT22;15752;49.560;8.708;2023-02-11T02:55:06;4.30;97.40
28552;DHT22;15752;49.560;8.708;2023-02-11T02:57:52;4.30;97.40
28552;DHT22;15752;49.560;8.708;2023-02-11T03:00:33;4.30;97.40
28552;DHT22;15752;49.560;8.708;2023-02-11T03:03:22;4.30;97.40
28552;DHT22;15752;49.560;8.708;2023-02-11T03:06:01;4.30;97.40
28552;DHT22;15752;49.560;8.708;2023-02-11T03:08:35;4.30;97.20
28552;DHT22;15752;49.560;8.708;2023-02-11T03:11:06;4.30;97.30
28552;DHT22;15752;49.560;8.708;2023-02-11T03:13:38;4.30;97.20
28552;DHT22;15752;49.560;8.708;2023-02-11T03:16:09;4.30;97.20
28552;DHT22;15752;49.560;8.708;2023-02-11T03:18:42;4.40;97.40
28552;DHT22;15752;49.560;8.708;2023-02-11T03:21:15;4.40;97.40
28552;DHT22;15752;49.560;8.708;2023-02-11T03:23:48;4.40;97.30
28552;DHT22;15752;49.560;8.708;2023-02-11T03:26:22;4.40;97.30
28552;DHT22;15752;49.560;8.708;2023-02-11T03:29:01;4.40;97.30
28552;DHT22;15752;49.560;8.708;2023-02-11T03:31:36;4.40;97.30
28552;DHT22;15752;49.560;8.708;2023-02-11T03:34:10;4.40;97.30
28552;DHT22;15752;49.560;8.708;2023-02-11T03:36:47;4.40;97.30
28552;DHT22;15752;49.560;8.708;2023-02-11T03:39:19;4.40;97.30
28552;DHT22;15752;49.560;8.708;2023-02-11T03:41:57;4.40;97.30
28552;DHT22;15752;49.560;8.708;2023-02-11T03:44:30;4.40;97.40
28552;DHT22;15752;49.560;8.708;2023-02-11T03:47:04;4.40;97.40
28552;DHT22;15752;49.560;8.708;2023-02-11T03:49:37;4.50;97.40
28552;DHT22;15752;49.560;8.708;2023-02-11T03:52:08;4.50;97.50
28552;DHT22;15752;49.560;8.708;2023-02-11T03:54:39;4.50;97.50
28552;DHT22;15752;49.560;8.708;2023-02-11T03:57:09;4.50;97.50
28552;DHT22;15752;49.560;8.708;2023-02-11T03:59:51;4.50;97.50
28552;DHT22;15752;49.560;8.708;2023-02-11T04:02:22;4.50;97.60
28552;DHT22;15752;49.560;8.708;2023-02-11T04:04:51;4.60;97.60
28552;DHT22;15752;49.560;8.708;2023-02-11T04:07:21;4.60;97.50
28552;DHT22;15752;49.560;8.708;2023-02-11T04:09:50;4.50;97.60
28552;DHT22;15752;49.560;8.708;2023-02-11T04:12:19;4.50;97.70
28552;DHT22;15752;49.560;8.708;2023-02-11T04:14:47;4.50;97.80
28552;DHT22;15752;49.560;8.708;2023-02-11T04:17:16;4.50;97.70
28552;DHT22;15752;49.560;8.708;2023-02-11T04:19:45;4.50;97.60
28552;DHT22;15752;49.560;8.708;2023-02-11T04:22:13;4.50;97.60
28552;DHT22;15752;49.560;8.708;2023-02-11T04:24:43;4.60;97.60
28552;DHT22;15752;49.560;8.708;2023-02-11T04:27:11;4.60;97.60
28552;DHT22;15752;49.560;8.708;2023-02-11T04:29:39;4.50;97.50
28552;DHT22;15752;49.560;8.708;2023-02-11T04:32:08;4.60;97.60
28552;DHT22;15752;49.560;8.708;2023-02-11T04:34:37;4.60;97.60
28552;DHT22;15752;49.560;8.708;2023-02-11T04:37:06;4.60;97.60
28552;DHT22;15752;49.560;8.708;2023-02-11T04:39:35;4.80;97.60
28552;DHT22;15752;49.560;8.708;2023-02-11T04:42:05;4.70;97.60
28552;DHT22;15752;49.560;8.708;2023-02-11T04:44:33;4.60;97.60
28552;DHT22;15752;49.560;8.708;2023-02-11T04:47:02;4.70;97.50
28552;DHT22;15752;49.560;8.708;2023-02-11T04:49:30;4.60;97.50
28552;DHT22;15752;49.560;8.708;2023-02-11T04:51:58;4.60;97.50
28552;DHT22;15752;49.560;8.708;2023-02-11T04:54:27;4.60;97.60
28552;DHT22;15752;49.560;8.708;2023-02-11T04:56:55;4.60;97.60
28552;DHT22;15752;49.560;8.708;2023-02-11T04:59:25;4.60;97.50
28552;DHT22;15752;49.560;8.708;2023-02-11T05:01:53;4.60;97.40
28552;DHT22;15752;49.560;8.708;2023-02-11T05:04:22;4.60;97.50
28552;DHT22;15752;49.560;8.708;2023-02-11T05:06:51;4.60;97.40
28552;DHT22;15752;49.560;8.708;2023-02-11T05:09:21;4.60;97.50
28552;DHT22;15752;49.560;8.708;2023-02-11T05:11:49;4.60;97.50
28552;DHT22;15752;49.560;8.708;2023-02-11T05:14:17;4.60;97.50
28552;DHT22;15752;49.560;8.708;2023-02-11T05:16:47;4.60;97.80
28552;DHT22;15752;49.560;8.708;2023-02-11T05:19:16;4.60;97.50
28552;DHT22;15752;49.560;8.708;2023-02-11T05:21:44;4.60;97.30
28552;DHT22;15752;49.560;8.708;2023-02-11T05:24:27;4.60;97.30
28552;DHT22;15752;49.560;8.708;2023-02-11T05:26:56;4.60;97.40
28552;DHT22;15752;49.560;8.708;2023-02-11T05:29:24;4.60;97.30
28552;DHT22;15752;49.560;8.708;2023-02-11T05:31:54;4.60;97.40
28552;DHT22;15752;49.560;8.708;2023-02-11T05:34:22;4.60;97.50
28552;DHT22;15752;49.560;8.708;2023-02-11T05:36:51;4.50;97.50
28552;DHT22;15752;49.560;8.708;2023-02-11T05:39:19;4.50;97.50
28552;DHT22;15752;49.560;8.708;2023-02-11T05:41:47;4.70;97.60
28552;DHT22;15752;49.560;8.708;2023-02-11T05:44:16;4.60;97.50
28552;DHT22;15752;49.560;8.708;2023-02-11T05:46:44;4.50;97.70
28552;DHT22;15752;49.560;8.708;2023-02-11T05:49:15;4.60;97.50
28552;DHT22;15752;49.560;8.708;2023-02-11T05:51:43;4.70;97.60
28552;DHT22;15752;49.560;8.708;2023-02-11T05:54:12;4.60;97.30
28552;DHT22;15752;49.560;8.708;2023-02-11T05:56:41;4.60;97.50
28552;DHT22;15752;49.560;8.708;2023-02-11T05:59:12;4.60;97.60
28552;DHT22;15752;49.560;8.708;2023-02-11T06:01:41;4.50;97.90
28552;DHT22;15752;49.560;8.708;2023-02-11T06:04:09;4.60;97.60
28552;DHT22;15752;49.560;8.708;2023-02-11T06:06:39;4.50;97.60
28552;DHT22;15752;49.560;8.708;2023-02-11T06:09:08;4.60;97.50
28552;DHT22;15752;49.560;8.708;2023-02-11T06:11:37;4.60;97.60
28552;DHT22;15752;49.560;8.708;2023-02-11T06:14:06;4.50;97.80
28552;DHT22;15752;49.560;8.708;2023-02-11T06:16:35;4.50;97.40
28552;DHT22;15752;49.560;8.708;2023-02-11T06:19:04;4.50;97.50
28552;DHT22;15752;49.560;8.708;2023-02-11T06:21:33;4.50;97.50
28552;DHT22;15752;49.560;8.708;2023-02-11T06:24:11;4.50;97.40
28552;DHT22;15752;49.560;8.708;2023-02-11T06:26:40;4.60;97.40
28552;DHT22;15752;49.560;8.708;2023-02-11T06:29:08;4.60;97.60
28552;DHT22;15752;49.560;8.708;2023-02-11T06:31:37;4.50;97.80
28552;DHT22;15752;49.560;8.708;2023-02-11T06:34:07;4.50;97.50
28552;DHT22;15752;49.560;8.708;2023-02-11T06:36:38;4.60;97.60
28552;DHT22;15752;49.560;8.708;2023-02-11T06:39:07;4.50;97.60
28552;DHT22;15752;49.560;8.708;2023-02-11T10:14:11;7.00;98.50
28552;DHT22;15752;49.560;8.708;2023-02-11T10:16:57;7.10;98.40
28552;DHT22;15752;49.560;8.708;2023-02-11T10:19:42;7.10;98.30
28552;DHT22;15752;49.560;8.708;2023-02-11T10:22:20;7.20;98.20
28552;DHT22;15752;49.560;8.708;2023-02-11T10:24:54;7.20;98.10
28552;DHT22;15752;49.560;8.708;2023-02-11T10:27:30;7.30;98.10
28552;DHT22;15752;49.560;8.708;2023-02-11T10:30:07;7.30;98.00
28552;DHT22;15752;49.560;8.708;2023-02-11T10:32:47;7.40;98.10
28552;DHT22;15752;49.560;8.708;2023-02-11T10:35:19;7.50;98.10
28552;DHT22;15752;49.560;8.708;2023-02-11T10:37:49;7.50;98.10
28552;DHT22;15752;49.560;8.708;2023-02-11T10:40:19;7.50;98.00
28552;DHT22;15752;49.560;8.708;2023-02-11T10:42:52;7.80;98.10
28552;DHT22;15752;49.560;8.708;2023-02-11T10:45:29;7.70;98.10
28552;DHT22;15752;49.560;8.708;2023-02-11T10:48:00;7.70;98.00
28552;DHT22;15752;49.560;8.708;2023-02-11T10:50:31;7.90;98.00
28552;DHT22;15752;49.560;8.708;2023-02-11T10:53:16;7.80;97.90
28552;DHT22;15752;49.560;8.708;2023-02-11T10:55:50;7.90;98.00
28552;DHT22;15752;49.560;8.708;2023-02-11T10:58:26;7.90;97.90
28552;DHT22;15752;49.560;8.708;2023-02-11T11:00:58;7.90;97.80
28552;DHT22;15752;49.560;8.708;2023-02-11T11:03:32;8.00;97.80
28552;DHT22;15752;49.560;8.708;2023-02-11T11:06:04;8.20;97.80
28552;DHT22;15752;49.560;8.708;2023-02-11T11:08:39;8.00;97.80
28552;DHT22;15752;49.560;8.708;2023-02-11T11:11:11;8.10;97.80
28552;DHT22;15752;49.560;8.708;2023-02-11T11:13:41;8.20;97.80
28552;DHT22;15752;49.560;8.708;2023-02-11T11:16:26;8.10;97.70
28552;DHT22;15752;49.560;8.708;2023-02-11T11:19:14;8.10;97.60
28552;DHT22;15752;49.560;8.708;2023-02-11T11:21:45;8.20;97.80
28552;DHT22;15752;49.560;8.708;2023-02-11T11:24:17;8.20;97.70
28552;DHT22;15752;49.560;8.708;2023-02-11T11:26:50;8.30;97.70
28552;DHT22;15752;49.560;8.708;2023-02-11T11:29:23;8.20;97.70
28552;DHT22;15752;49.560;8.708;2023-02-11T11:31:59;8.30;97.60
28552;DHT22;15752;49.560;8.708;2023-02-11T11:34:32;8.50;97.70
28552;DHT22;15752;49.560;8.708;2023-02-11T11:37:10;8.30;97.60
28552;DHT22;15752;49.560;8.708;2023-02-11T11:39:39;8.50;97.60
28552;DHT22;15752;49.560;8.708;2023-02-11T11:42:24;8.50;97.60
28552;DHT22;15752;49.560;8.708;2023-02-11T11:44:58;8.50;97.80
28552;DHT22;15752;49.560;8.708;2023-02-11T11:47:40;8.40;98.00
28552;DHT22;15752;49.560;8.708;2023-02-11T11:50:26;8.60;97.80
28552;DHT22;15752;49.560;8.708;2023-02-11T11:53:01;8.50;97.70
28552;DHT22;15752;49.560;8.708;2023-02-11T11:55:35;8.50;97.60
28552;DHT22;15752;49.560;8.708;2023-02-11T11:58:11;8.70;97.70
28552;DHT22;15752;49.560;8.708;2023-02-11T12:00:51;8.60;97.70
28552;DHT22;15752;49.560;8.708;2023-02-11T12:06:38;8.60;98.00
28552;DHT22;15752;49.560;8.708;2023-02-11T12:09:17;8.70;97.60
28552;DHT22;15752;49.560;8.708;2023-02-11T12:15:02;8.90;97.60
28552;DHT22;15752;49.560;8.708;2023-02-11T12:18:00;9.00;97.60
28552;DHT22;15752;49.560;8.708;2023-02-11T12:20:49;9.00;97.60
28552;DHT22;15752;49.560;8.708;2023-02-11T12:23:35;8.90;97.50
28552;DHT22;15752;49.560;8.708;2023-02-11T12:26:13;8.90;97.70
28552;DHT22;15752;49.560;8.708;2023-02-11T12:28:54;9.00;97.40
28552;DHT22;15752;49.560;8.708;2023-02-11T12:31:47;9.00;97.50
28552;DHT22;15752;49.560;8.708;2023-02-11T12:34:39;9.00;97.40
28552;DHT22;15752;49.560;8.708;2023-02-11T12:37:31;9.00;97.40
28552;DHT22;15752;49.560;8.708;2023-02-11T12:40:14;9.10;97.40
28552;DHT22;15752;49.560;8.708;2023-02-11T12:42:58;9.30;97.40
28552;DHT22;15752;49.560;8.708;2023-02-11T12:45:58;9.10;97.40
28552;DHT22;15752;49.560;8.708;2023-02-11T12:48:51;9.10;97.30
28552;DHT22;15752;49.560;8.708;2023-02-11T12:51:31;9.20;97.40
28552;DHT22;15752;49.560;8.708;2023-02-11T12:57:22;9.20;97.30
28552;DHT22;15752;49.560;8.708;2023-02-11T12:59:58;9.30;97.40
28552;DHT22;15752;49.560;8.708;2023-02-11T13:02:39;9.50;97.50
28552;DHT22;15752;49.560;8.708;2023-02-11T13:05:22;9.30;97.40
28552;DHT22;15752;49.560;8.708;2023-02-11T13:07:57;9.50;97.40
28552;DHT22;15752;49.560;8.708;2023-02-11T13:10:33;9.30;97.30
28552;DHT22;15752;49.560;8.708;2023-02-11T13:13:10;9.40;97.50
28552;DHT22;15752;49.560;8.708;2023-02-11T13:15:55;9.50;97.50
28552;DHT22;15752;49.560;8.708;2023-02-11T13:18:45;9.40;97.40
28552;DHT22;15752;49.560;8.708;2023-02-11T13:21:55;9.40;97.40
28552;DHT22;15752;49.560;8.708;2023-02-11T13:24:39;9.40;97.50
28552;DHT22;15752;49.560;8.708;2023-02-11T13:27:29;9.40;97.40
28552;DHT22;15752;49.560;8.708;2023-02-11T13:30:20;9.40;97.40
28552;DHT22;15752;49.560;8.708;2023-02-11T13:36:10;9.40;97.50
28552;DHT22;15752;49.560;8.708;2023-02-11T13:39:03;9.60;97.60
28552;DHT22;15752;49.560;8.708;2023-02-11T13:41:38;9.40;97.60
28552;DHT22;15752;49.560;8.708;2023-02-11T13:44:26;9.50;97.60
28552;DHT22;15752;49.560;8.708;2023-02-11T13:46:58;9.50;97.60
28552;DHT22;15752;49.560;8.708;2023-02-11T13:49:34;9.60;97.70
28552;DHT22;15752;49.560;8.708;2023-02-11T13:52:20;9.50;97.60
28552;DHT22;15752;49.560;8.708;2023-02-11T13:54:52;9.60;97.70
28552;DHT22;15752;49.560;8.708;2023-02-11T13:57:39;9.50;97.60
28552;DHT22;15752;49.560;8.708;2023-02-11T14:03:27;9.50;97.70
28552;DHT22;15752;49.560;8.708;2023-02-11T14:06:20;9.50;97.60
28552;DHT22;15752;49.560;8.708;2023-02-11T14:09:36;9.50;97.60
28552;DHT22;15752;49.560;8.708;2023-02-11T14:12:33;9.50;97.70
28552;DHT22;15752;49.560;8.708;2023-02-11T14:15:19;9.60;97.70
28552;DHT22;15752;49.560;8.708;2023-02-11T14:18:36;9.70;97.70
28552;DHT22;15752;49.560;8.708;2023-02-11T14:21:10;9.70;97.70
28552;DHT22;15752;49.560;8.708;2023-02-11T14:23:40;9.60;97.90
28552;DHT22;15752;49.560;8.708;2023-02-11T14:26:26;9.60;97.50
28552;DHT22;15752;49.560;8.708;2023-02-11T14:29:07;9.60;97.70
28552;DHT22;15752;49.560;8.708;2023-02-11T14:31:44;9.60;97.60
28552;DHT22;15752;49.560;8.708;2023-02-11T14:34:33;9.60;97.60
28552;DHT22;15752;49.560;8.708;2023-02-11T14:37:17;9.60;97.70
28552;DHT22;15752;49.560;8.708;2023-02-11T14:39:57;9.60;97.70
28552;DHT22;15752;49.560;8.708;2023-02-11T14:42:30;9.70;97.70
28552;DHT22;15752;49.560;8.708;2023-02-11T14:45:05;9.60;97.50
28552;DHT22;15752;49.560;8.708;2023-02-11T14:47:40;9.60;97.70
28552;DHT22;15752;49.560;8.708;2023-02-11T14:50:18;9.80;97.70
28552;DHT22;15752;49.560;8.708;2023-02-11T14:52:50;9.60;97.70
28552;DHT22;15752;49.560;8.708;2023-02-11T14:55:27;9.60;97.70
28552;DHT22;15752;49.560;8.708;2023-02-11T14:58:11;9.70;97.80
28552;DHT22;15752;49.560;8.708;2023-02-11T15:00:53;9.60;97.90
28552;DHT22;15752;49.560;8.708;2023-02-11T15:03:25;9.60;97.90
28552;DHT22;15752;49.560;8.708;2023-02-11T15:05:58;9.70;97.90
28552;DHT22;15752;49.560;8.708;2023-02-11T15:08:28;9.60;97.90
28552;DHT22;15752;49.560;8.708;2023-02-11T15:10:57;9.80;97.90
28552;DHT22;15752;49.560;8.708;2023-02-11T15:13:29;9.60;97.80
28552;DHT22;15752;49.560;8.708;2023-02-11T15:16:04;9.70;98.00
28552;DHT22;15752;49.560;8.708;2023-02-11T15:18:38;9.60;98.00
28552;DHT22;15752;49.560;8.708;2023-02-11T15:21:09;9.60;97.90
28552;DHT22;15752;49.560;8.708;2023-02-11T15:23:38;9.80;97.90
28552;DHT22;15752;49.560;8.708;2023-02-11T15:26:16;9.50;97.80
28552;DHT22;15752;49.560;8.708;2023-02-11T15:28:48;9.70;98.00
28552;DHT22;15752;49.560;8.708;2023-02-11T15:31:19;9.60;97.70
28552;DHT22;15752;49.560;8.708;2023-02-11T15:33:50;9.50;98.00
28552;DHT22;15752;49.560;8.708;2023-02-11T15:36:23;9.60;97.90
28552;DHT22;15752;49.560;8.708;2023-02-11T15:39:28;9.50;98.00
28552;DHT22;15752;49.560;8.708;2023-02-11T15:42:20;9.70;98.20
28552;DHT22;15752;49.560;8.708;2023-02-11T15:45:20;9.50;98.10
28552;DHT22;15752;49.560;8.708;2023-02-11T15:48:06;9.50;98.10
28552;DHT22;15752;49.560;8.708;2023-02-11T15:50:37;9.50;98.10
28552;DHT22;15752;49.560;8.708;2023-02-11T15:53:23;9.50;98.00
28552;DHT22;15752;49.560;8.708;2023-02-11T15:56:00;9.50;98.20
28552;DHT22;15752;49.560;8.708;2023-02-11T15:58:35;9.50;98.00
28552;DHT22;15752;49.560;8.708;2023-02-11T16:01:07;9.50;98.10
28552;DHT22;15752;49.560;8.708;2023-02-11T16:03:37;9.40;98.00
28552;DHT22;15752;49.560;8.708;2023-02-11T16:06:16;9.60;98.00
28552;DHT22;15752;49.560;8.708;2023-02-11T16:09:01;9.40;98.20
28552;DHT22;15752;49.560;8.708;2023-02-11T16:11:33;9.50;98.30
28552;DHT22;15752;49.560;8.708;2023-02-11T16:14:20;9.40;98.10
28552;DHT22;15752;49.560;8.708;2023-02-11T16:16:52;9.50;98.30
28552;DHT22;15752;49.560;8.708;2023-02-11T16:19:24;9.50;98.30
28552;DHT22;15752;49.560;8.708;2023-02-11T16:21:55;9.50;98.40
28552;DHT22;15752;49.560;8.708;2023-02-11T16:24:28;9.30;98.30
28552;DHT22;15752;49.560;8.708;2023-02-11T16:26:59;9.30;98.40
28552;DHT22;15752;49.560;8.708;2023-02-11T16:29:30;9.30;98.40
28552;DHT22;15752;49.560;8.708;2023-02-11T16:32:07;9.30;98.50
28552;DHT22;15752;49.560;8.708;2023-02-11T16:34:37;9.30;98.50
28552;DHT22;15752;49.560;8.708;2023-02-11T16:37:06;9.30;98.30
28552;DHT22;15752;49.560;8.708;2023-02-11T16:39:36;9.40;98.40
28552;DHT22;15752;49.560;8.708;2023-02-11T16:42:04;9.40;98.40
28552;DHT22;15752;49.560;8.708;2023-02-11T16:44:34;9.30;98.40
28552;DHT22;15752;49.560;8.708;2023-02-11T16:47:03;9.20;98.40
28552;DHT22;15752;49.560;8.708;2023-02-11T16:49:36;9.20;98.40
28552;DHT22;15752;49.560;8.708;2023-02-11T16:52:12;9.30;98.50
28552;DHT22;15752;49.560;8.708;2023-02-11T16:54:43;9.30;98.60
28552;DHT22;15752;49.560;8.708;2023-02-11T16:57:14;9.30;98.50
28552;DHT22;15752;49.560;8.708;2023-02-11T16:59:43;9.30;98.70
28552;DHT22;15752;49.560;8.708;2023-02-11T17:02:15;9.10;98.50
28552;DHT22;15752;49.560;8.708;2023-02-11T17:04:50;9.30;99.00
28552;DHT22;15752;49.560;8.708;2023-02-11T17:07:20;9.20;98.70
28552;DHT22;15752;49.560;8.708;2023-02-11T17:09:50;9.10;98.70
28552;DHT22;15752;49.560;8.708;2023-02-11T17:12:18;9.20;98.60
28552;DHT22;15752;49.560;8.708;2023-02-11T17:14:47;9.20;98.70
28552;DHT22;15752;49.560;8.708;2023-02-11T17:17:16;9.10;98.60
28552;DHT22;15752;49.560;8.708;2023-02-11T17:19:44;9.10;98.60
28552;DHT22;15752;49.560;8.708;2023-02-11T17:22:13;9.10;98.50
28552;DHT22;15752;49.560;8.708;2023-02-11T17:24:42;9.00;98.60
28552;DHT22;15752;49.560;8.708;2023-02-11T17:27:12;9.00;98.70
28552;DHT22;15752;49.560;8.708;2023-02-11T17:29:41;9.10;98.80
28552;DHT22;15752;49.560;8.708;2023-02-11T17:32:09;9.10;98.70
28552;DHT22;15752;49.560;8.708;2023-02-11T17:34:37;9.10;98.70
28552;DHT22;15752;49.560;8.708;2023-02-11T17:37:06;9.00;98.70
28552;DHT22;15752;49.560;8.708;2023-02-11T17:39:35;9.00;98.70
28552;DHT22;15752;49.560;8.708;2023-02-11T17:42:04;9.10;98.80
28552;DHT22;15752;49.560;8.708;2023-02-11T17:44:35;8.90;98.80
28552;DHT22;15752;49.560;8.708;2023-02-11T17:47:04;8.90;98.70
28552;DHT22;15752;49.560;8.708;2023-02-11T17:49:33;9.00;98.70
28552;DHT22;15752;49.560;8.708;2023-02-11T17:52:02;8.90;98.70
28552;DHT22;15752;49.560;8.708;2023-02-11T17:54:31;9.00;98.90
28552;DHT22;15752;49.560;8.708;2023-02-11T17:56:59;8.90;98.90
28552;DHT22;15752;49.560;8.708;2023-02-11T17:59:27;8.90;98.90
28552;DHT22;15752;49.560;8.708;2023-02-11T18:02:03;8.80;98.90
28552;DHT22;15752;49.560;8.708;2023-02-11T18:04:32;8.90;99.10
28552;DHT22;15752;49.560;8.708;2023-02-11T18:07:01;8.90;98.90
28552;DHT22;15752;49.560;8.708;2023-02-11T18:09:29;8.80;98.90
28552;DHT22;15752;49.560;8.708;2023-02-11T18:11:57;8.80;98.90
28552;DHT22;15752;49.560;8.708;2023-02-11T18:14:26;8.80;98.90
28552;DHT22;15752;49.560;8.708;2023-02-11T18:16:54;8.70;98.90
28552;DHT22;15752;49.560;8.708;2023-02-11T18:19:24;8.90;98.90
28552;DHT22;15752;49.560;8.708;2023-02-11T18:21:56;8.70;99.00
28552;DHT22;15752;49.560;8.708;2023-02-11T18:24:26;8.70;99.00
28552;DHT22;15752;49.560;8.708;2023-02-11T18:26:55;8.80;99.00
28552;DHT22;15752;49.560;8.708;2023-02-11T18:29:23;8.70;99.10
28552;DHT22;15752;49.560;8.708;2023-02-11T18:31:54;8.80;99.10
28552;DHT22;15752;49.560;8.708;2023-02-11T18:34:25;8.70;99.50
28552;DHT22;15752;49.560;8.708;2023-02-11T18:36:53;8.70;99.40
28552;DHT22;15752;49.560;8.708;2023-02-11T18:39:22;8.70;99.00
28552;DHT22;15752;49.560;8.708;2023-02-11T18:41:54;8.60;99.10
28552;DHT22;15752;49.560;8.708;2023-02-11T18:44:22;8.70;99.20
28552;DHT22;15752;49.560;8.708;2023-02-11T18:46:51;8.60;99.20
28552;DHT22;15752;49.560;8.708;2023-02-11T18:49:20;8.70;99.30
28552;DHT22;15752;49.560;8.708;2023-02-11T18:51:50;8.70;99.10
28552;DHT22;15752;49.560;8.708;2023-02-11T18:54:18;8.60;99.10
28552;DHT22;15752;49.560;8.708;2023-02-11T18:56:48;8.60;99.10
28552;DHT22;15752;49.560;8.708;2023-02-11T18:59:17;8.50;99.20
28552;DHT22;15752;49.560;8.708;2023-02-11T19:01:45;8.60;99.50
28552;DHT22;15752;49.560;8.708;2023-02-11T19:04:14;8.50;99.30
28552;DHT22;15752;49.560;8.708;2023-02-11T19:06:47;8.70;99.40
28552;DHT22;15752;49.560;8.708;2023-02-11T19:09:19;8.50;99.40
28552;DHT22;15752;49.560;8.708;2023-02-11T19:11:47;8.50;99.40
28552;DHT22;15752;49.560;8.708;2023-02-11T19:14:22;8.50;99.30
28552;DHT22;15752;49.560;8.708;2023-02-11T19:16:53;8.70;99.50
28552;DHT22;15752;49.560;8.708;2023-02-11T19:19:24;8.50;99.40
28552;DHT22;15752;49.560;8.708;2023-02-11T19:21:55;8.50;99.40
28552;DHT22;15752;49.560;8.708;2023-02-11T19:24:27;8.60;99.50
28552;DHT22;15752;49.560;8.708;2023-02-11T19:26:57;8.50;99.40
28552;DHT22;15752;49.560;8.708;2023-02-11T19:29:28;8.50;99.40
28552;DHT22;15752;49.560;8.708;2023-02-11T19:31:58;8.50;99.40
28552;DHT22;15752;49.560;8.708;2023-02-11T19:34:28;8.50;99.40
28552;DHT22;15752;49.560;8.708;2023-02-11T19:36:58;8.40;99.50
28552;DHT22;15752;49.560;8.708;2023-02-11T19:39:28;8.40;99.40
28552;DHT22;15752;49.560;8.708;2023-02-11T19:41:57;8.40;99.40
28552;DHT22;15752;49.560;8.708;2023-02-11T19:44:26;8.40;99.40
28552;DHT22;15752;49.560;8.708;2023-02-11T19:46:54;8.40;99.40
28552;DHT22;15752;49.560;8.708;2023-02-11T19:49:23;8.50;99.50
28552;DHT22;15752;49.560;8.708;2023-02-11T19:51:53;8.50;99.60
28552;DHT22;15752;49.560;8.708;2023-02-11T19:54:24;8.40;99.60
28552;DHT22;15752;49.560;8.708;2023-02-11T19:56:56;8.50;99.60
28552;DHT22;15752;49.560;8.708;2023-02-11T19:59:25;8.40;99.50
28552;DHT22;15752;49.560;8.708;2023-02-11T20:01:53;8.30;99.50
28552;DHT22;15752;49.560;8.708;2023-02-11T20:04:23;8.30;99.80
28552;DHT22;15752;49.560;8.708;2023-02-11T20:06:51;8.30;99.60
28552;DHT22;15752;49.560;8.708;2023-02-11T20:09:20;8.30;99.70
28552;DHT22;15752;49.560;8.708;2023-02-11T20:11:48;8.40;99.70
28552;DHT22;15752;49.560;8.708;2023-02-11T20:14:20;8.40;99.70
28552;DHT22;15752;49.560;8.708;2023-02-11T20:16:52;8.30;99.70
28552;DHT22;15752;49.560;8.708;2023-02-11T20:19:21;8.40;99.60
28552;DHT22;15752;49.560;8.708;2023-02-11T20:21:51;8.40;99.60
28552;DHT22;15752;49.560;8.708;2023-02-11T20:24:27;8.20;99.70
28552;DHT22;15752;49.560;8.708;2023-02-11T20:26:55;8.30;99.80